Time;durP1;ratioP1;P1;durP2;ratioP2;P2;SDS_P1;SDS_P2;PMS_P1;PMS_P2;Temp;Humidity;BMP_temperature;BMP_pressure;BME280_temperature;BME280_humidity;BME280_pressure;Samples;Min_cycle;Max_cycle;Signal;HPM_P1;HPM_P2
2021/03/21 00:01:27;;;;;;;39.17;21.23;;;;;;;;;;5073845;28;20410;-80
2021/03/21 00:03:53;;;;;;;41.00;21.80;;;;;;;;;;5073514;28;20023;-80
2021/03/21 00:06:18;;;;;;;40.80;21.07;;;;;;;;;;5073847;28;20012;-80
2021/03/21 00:08:44;;;;;;;40.20;20.77;;;;;;;;;;5072346;28;20020;-80
2021/03/21 00:11:09;;;;;;;39.83;20.37;;;;;;;;;;5073452;28;20024;-80
2021/03/21 00:13:34;;;;;;;38.10;21.57;;;;;;;;;;5072121;28;20074;-81
2021/03/21 00:16:00;;;;;;;38.97;22.67;;;;;;;;;;5072158;28;20097;-80
2021/03/21 00:18:28;;;;;;;40.77;21.73;;;;;;;;;;5072025;28;20013;-80
2021/03/21 00:20:53;;;;;;;44.07;23.07;;;;;;;;;;5073030;28;20020;-81
2021/03/21 00:23:19;;;;;;;41.90;20.13;;;;;;;;;;5073132;28;20379;-81
2021/03/21 00:25:44;;;;;;;39.83;22.57;;;;;;;;;;5073426;28;20118;-80
2021/03/21 00:28:11;;;;;;;42.33;23.07;;;;;;;;;;5064307;28;20440;-80
2021/03/21 00:30:38;;;;;;;40.60;22.53;;;;;;;;;;5067482;28;20025;-80
2021/03/21 00:33:04;;;;;;;44.93;22.50;;;;;;;;;;5073323;28;20035;-81
2021/03/21 00:35:29;;;;;;;44.73;23.27;;;;;;;;;;5071670;28;20008;-81
2021/03/21 00:37:59;;;;;;;47.30;23.17;;;;;;;;;;5071929;28;20468;-81
2021/03/21 00:40:24;;;;;;;47.27;22.03;;;;;;;;;;5071722;28;20050;-80
2021/03/21 00:42:50;;;;;;;43.13;22.70;;;;;;;;;;5071689;28;20048;-80
2021/03/21 00:45:16;;;;;;;42.67;22.00;;;;;;;;;;5070907;28;20038;-80
2021/03/21 00:47:41;;;;;;;44.57;21.23;;;;;;;;;;5071686;28;20020;-80
2021/03/21 00:50:08;;;;;;;42.63;21.53;;;;;;;;;;5072817;28;20479;-80
2021/03/21 00:52:33;;;;;;;44.73;23.73;;;;;;;;;;5071625;28;20061;-80
2021/03/21 00:54:59;;;;;;;50.93;22.17;;;;;;;;;;5073160;28;20032;-80
2021/03/21 00:57:24;;;;;;;41.97;20.87;;;;;;;;;;5072665;28;20104;-80
2021/03/21 00:59:49;;;;;;;43.90;20.60;;;;;;;;;;5073005;28;20059;-80
2021/03/21 01:02:14;;;;;;;44.97;21.03;;;;;;;;;;5071275;28;20397;-80
2021/03/21 01:04:39;;;;;;;44.83;20.90;;;;;;;;;;5072770;28;20025;-81
2021/03/21 01:07:05;;;;;;;43.37;20.80;;;;;;;;;;5072732;28;20035;-81
2021/03/21 01:09:30;;;;;;;44.43;20.20;;;;;;;;;;5072626;28;20360;-80
2021/03/21 01:11:55;;;;;;;39.30;20.33;;;;;;;;;;5072556;28;20027;-80
2021/03/21 01:14:20;;;;;;;41.60;21.77;;;;;;;;;;5064205;28;20025;-80
2021/03/21 01:16:45;;;;;;;43.70;20.40;;;;;;;;;;5072554;28;20451;-80
2021/03/21 01:19:13;;;;;;;43.40;20.97;;;;;;;;;;5072563;28;20406;-80
2021/03/21 01:21:44;;;;;;;39.07;18.77;;;;;;;;;;5071166;28;20107;-80
2021/03/21 01:24:09;;;;;;;43.87;21.03;;;;;;;;;;5071189;28;20032;-80
2021/03/21 01:26:35;;;;;;;46.27;20.50;;;;;;;;;;5071237;28;20016;-80
2021/03/21 01:29:00;;;;;;;44.93;19.67;;;;;;;;;;5071067;28;20551;-80
2021/03/21 01:31:25;;;;;;;44.23;19.47;;;;;;;;;;5072365;28;20033;-81
2021/03/21 01:33:51;;;;;;;42.73;20.90;;;;;;;;;;5072525;28;20024;-80
2021/03/21 01:36:18;;;;;;;47.87;22.20;;;;;;;;;;5071032;28;20071;-81
2021/03/21 01:38:44;;;;;;;44.67;21.33;;;;;;;;;;5070995;28;20032;-81
2021/03/21 01:41:17;;;;;;;41.37;19.37;;;;;;;;;;5070511;28;20024;-81
2021/03/21 01:43:42;;;;;;;43.20;20.20;;;;;;;;;;5070998;28;20021;-80
2021/03/21 01:46:08;;;;;;;42.10;21.37;;;;;;;;;;5070945;28;20020;-80
2021/03/21 01:48:45;;;;;;;45.20;20.73;;;;;;;;;;5072372;28;20038;-80
2021/03/21 01:51:11;;;;;;;41.57;20.40;;;;;;;;;;5070783;28;20029;-81
2021/03/21 01:53:37;;;;;;;45.97;23.40;;;;;;;;;;5072361;28;20028;-81
2021/03/21 01:56:03;;;;;;;41.13;21.77;;;;;;;;;;5070670;28;20028;-81
2021/03/21 01:58:29;;;;;;;46.43;21.97;;;;;;;;;;5073765;28;20016;-80
2021/03/21 02:01:03;;;;;;;45.73;20.50;;;;;;;;;;5075903;28;20456;-80
2021/03/21 02:03:29;;;;;;;47.23;22.53;;;;;;;;;;5075656;28;20021;-81
2021/03/21 02:06:01;;;;;;;48.33;20.97;;;;;;;;;;5075858;28;20353;-80
2021/03/21 02:08:26;;;;;;;;;;;;;;;;;;5075995;28;20511;-80
2021/03/21 02:11:10;;;;;;;46.95;21.83;;;;;;;;;;5074189;28;19908;-80
2021/03/21 02:13:57;;;;;;;47.07;21.37;;;;;;;;;;5074100;28;20500;-81
2021/03/21 02:16:27;;;;;;;48.67;23.47;;;;;;;;;;5074342;28;20046;-81
2021/03/21 02:18:52;;;;;;;57.67;23.73;;;;;;;;;;5074235;28;20111;-81
2021/03/21 02:21:21;;;;;;;47.13;21.70;;;;;;;;;;5075796;28;20141;-80
2021/03/21 02:24:05;;;;;;;45.63;21.73;;;;;;;;;;5073823;28;20016;-81
2021/03/21 02:26:48;;;;;;;47.47;22.77;;;;;;;;;;5075442;28;20371;-81
2021/03/21 02:29:19;;;;;;;43.57;20.40;;;;;;;;;;5074079;28;20025;-81
2021/03/21 02:31:51;;;;;;;45.90;21.87;;;;;;;;;;5075293;28;20487;-81
2021/03/21 02:34:20;;;;;;;46.80;22.67;;;;;;;;;;5075291;28;20460;-81
2021/03/21 02:36:48;;;;;;;45.00;21.27;;;;;;;;;;5075320;28;20028;-80
2021/03/21 02:39:20;;;;;;;45.10;21.77;;;;;;;;;;5075051;28;20478;-80
2021/03/21 02:41:49;;;;;;;47.40;20.97;;;;;;;;;;5073916;28;20020;-80
2021/03/21 02:44:22;;;;;;;44.43;21.47;;;;;;;;;;5074982;28;20089;-81
2021/03/21 02:46:50;;;;;;;42.15;20.02;;;;;;;;;;5075452;28;20017;-81
2021/03/21 02:49:18;;;;;;;43.97;20.73;;;;;;;;;;5073627;28;20013;-81
2021/03/21 02:51:45;;;;;;;42.47;19.83;;;;;;;;;;5073762;28;20019;-81
2021/03/21 02:54:16;;;;;;;40.43;20.00;;;;;;;;;;5073583;28;20024;-81
2021/03/21 02:56:42;;;;;;;42.00;21.67;;;;;;;;;;5073640;28;20020;-81
2021/03/21 02:59:10;;;;;;;49.40;22.30;;;;;;;;;;5073503;28;20020;-81
2021/03/21 03:01:39;;;;;;;48.53;22.63;;;;;;;;;;5074877;28;20024;-81
2021/03/21 03:04:10;;;;;;;45.40;20.50;;;;;;;;;;5074587;28;20059;-81
2021/03/21 03:06:37;;;;;;;44.80;21.60;;;;;;;;;;5074357;28;20372;-81
2021/03/21 03:09:13;;;;;;;39.83;19.27;;;;;;;;;;5074350;28;20023;-81
2021/03/21 03:11:42;;;;;;;42.57;20.53;;;;;;;;;;5073115;28;20016;-81
2021/03/21 03:14:11;;;;;;;42.03;20.83;;;;;;;;;;5073488;28;20032;-81
2021/03/21 03:16:40;;;;;;;39.70;19.47;;;;;;;;;;5073184;28;20035;-81
2021/03/21 03:19:20;;;;;;;43.33;22.17;;;;;;;;;;5073351;28;20427;-81
2021/03/21 03:22:01;;;;;;;41.00;20.70;;;;;;;;;;5072923;28;20017;-81
2021/03/21 03:24:34;;;;;;;41.13;19.37;;;;;;;;;;5074519;28;20025;-81
2021/03/21 03:27:09;;;;;;;40.23;18.90;;;;;;;;;;5073065;28;20020;-81
2021/03/21 03:29:38;;;;;;;42.23;20.67;;;;;;;;;;5072856;28;20024;-81
2021/03/21 03:32:06;;;;;;;42.37;21.20;;;;;;;;;;5072827;28;20021;-81
2021/03/21 03:34:31;;;;;;;40.50;19.77;;;;;;;;;;5072987;28;20021;-81
2021/03/21 03:36:58;;;;;;;43.77;21.20;;;;;;;;;;5074259;28;20077;-81
2021/03/21 03:39:23;;;;;;;41.30;20.07;;;;;;;;;;5074320;28;20452;-81
2021/03/21 03:41:57;;;;;;;43.30;19.80;;;;;;;;;;5072740;28;20099;-81
2021/03/21 03:44:42;;;;;;;42.17;20.67;;;;;;;;;;5072662;28;20008;-81
2021/03/21 03:47:19;;;;;;;43.20;21.10;;;;;;;;;;5073734;28;20013;-81
2021/03/21 03:49:56;;;;;;;45.20;20.23;;;;;;;;;;5059783;28;20069;-81
2021/03/21 03:52:24;;;;;;;41.87;19.57;;;;;;;;;;5072430;28;20024;-81
2021/03/21 03:54:56;;;;;;;43.57;20.70;;;;;;;;;;5072564;28;20455;-81
2021/03/21 03:57:33;;;;;;;39.90;20.13;;;;;;;;;;5072553;28;20025;-81
2021/03/21 04:00:08;;;;;;;43.30;20.17;;;;;;;;;;5073648;28;20016;-81
2021/03/21 04:02:36;;;;;;;41.03;19.17;;;;;;;;;;5073362;28;20452;-82
2021/03/21 04:05:14;;;;;;;43.93;19.93;;;;;;;;;;5072437;28;20436;-81
2021/03/21 04:07:42;;;;;;;44.00;20.73;;;;;;;;;;5072230;28;20020;-82
2021/03/21 04:10:07;;;;;;;43.87;19.20;;;;;;;;;;5073583;28;20372;-82
2021/03/21 04:12:58;;;;;;;40.67;19.60;;;;;;;;;;5072099;28;20024;-81
2021/03/21 04:15:26;;;;;;;46.10;20.93;;;;;;;;;;5056731;28;20033;-81
2021/03/21 04:17:55;;;;;;;43.53;20.23;;;;;;;;;;5072040;28;20020;-81
2021/03/21 04:20:22;;;;;;;48.03;20.53;;;;;;;;;;5071523;28;20024;-81
2021/03/21 04:22:50;;;;;;;44.13;19.60;;;;;;;;;;5072124;28;20020;-81
2021/03/21 04:25:21;;;;;;;43.83;20.30;;;;;;;;;;5071664;28;20028;-82
2021/03/21 04:27:51;;;;;;;44.00;19.60;;;;;;;;;;5071850;28;20013;-81
2021/03/21 04:30:19;;;;;;;44.33;19.53;;;;;;;;;;5071776;28;20116;-81
2021/03/21 04:32:48;;;;;;;42.90;20.07;;;;;;;;;;5073336;28;20099;-81
2021/03/21 04:35:17;;;;;;;43.87;19.30;;;;;;;;;;5071887;28;20111;-81
2021/03/21 04:37:43;;;;;;;46.17;21.60;;;;;;;;;;5068214;28;20329;-81
2021/03/21 04:40:09;;;;;;;43.07;19.70;;;;;;;;;;5072603;28;20035;-81
2021/03/21 04:42:41;;;;;;;43.63;19.53;;;;;;;;;;5071253;28;20028;-81
2021/03/21 04:45:09;;;;;;;44.90;19.30;;;;;;;;;;5071101;28;20020;-81
2021/03/21 04:47:37;;;;;;;49.07;21.63;;;;;;;;;;5072444;28;20024;-81
2021/03/21 04:50:02;;;;;;;46.50;21.70;;;;;;;;;;5071105;28;20013;-81
2021/03/21 04:52:34;;;;;;;51.50;23.47;;;;;;;;;;5071055;28;20035;-81
2021/03/21 04:55:00;;;;;;;48.17;21.93;;;;;;;;;;5072663;28;20012;-81
2021/03/21 04:57:31;;;;;;;55.40;21.87;;;;;;;;;;5072550;28;20028;-81
2021/03/21 04:59:57;;;;;;;47.73;21.93;;;;;;;;;;5071349;28;20105;-81
2021/03/21 05:02:24;;;;;;;54.10;24.53;;;;;;;;;;5072248;28;20685;-81
2021/03/21 05:04:53;;;;;;;53.90;23.43;;;;;;;;;;5072282;28;20139;-81
2021/03/21 05:07:27;;;;;;;57.73;23.67;;;;;;;;;;5070956;28;20118;-81
2021/03/21 05:09:54;;;;;;;52.23;23.70;;;;;;;;;;5072197;28;20025;-81
2021/03/21 05:12:30;;;;;;;53.00;24.17;;;;;;;;;;5070718;28;20034;-81
2021/03/21 05:15:07;;;;;;;49.23;21.67;;;;;;;;;;5072257;28;20028;-81
2021/03/21 05:18:02;;;;;;;54.10;23.00;;;;;;;;;;5070908;28;20021;-81
2021/03/21 05:20:42;;;;;;;55.90;23.40;;;;;;;;;;5047441;28;20043;-81
2021/03/21 05:23:10;;;;;;;55.27;24.53;;;;;;;;;;5070632;28;20032;-81
2021/03/21 05:25:44;;;;;;;49.30;22.10;;;;;;;;;;5072221;28;20019;-81
2021/03/21 05:28:15;;;;;;;53.20;21.83;;;;;;;;;;5070940;28;20025;-82
2021/03/21 05:30:40;;;;;;;50.70;22.87;;;;;;;;;;5072190;28;20457;-81
2021/03/21 05:33:05;;;;;;;52.03;22.93;;;;;;;;;;5074922;28;20027;-81
2021/03/21 05:35:33;;;;;;;56.73;24.13;;;;;;;;;;5075946;28;20078;-81
2021/03/21 05:38:01;;;;;;;58.67;25.00;;;;;;;;;;5074701;28;20033;-81
2021/03/21 05:40:38;;;;;;;59.80;24.83;;;;;;;;;;5076025;28;20028;-81
2021/03/21 05:43:22;;;;;;;63.27;25.43;;;;;;;;;;5074564;28;20039;-81
2021/03/21 05:46:06;;;;;;;68.43;26.93;;;;;;;;;;5074434;28;20016;-81
2021/03/21 05:48:31;;;;;;;61.87;26.00;;;;;;;;;;5069915;28;20009;-81
2021/03/21 05:51:16;;;;;;;68.20;25.56;;;;;;;;;;5074445;28;20065;-81
2021/03/21 05:53:50;;;;;;;67.27;27.30;;;;;;;;;;5076275;28;20085;-81
2021/03/21 05:56:34;;;;;;;63.33;26.67;;;;;;;;;;5074239;28;20040;-81
2021/03/21 05:59:23;;;;;;;76.23;28.80;;;;;;;;;;5074548;28;20021;-81
2021/03/21 06:02:03;;;;;;;66.27;27.63;;;;;;;;;;5068898;28;20020;-81
2021/03/21 06:04:47;;;;;;;59.47;23.77;;;;;;;;;;5075577;28;20393;-81
2021/03/21 06:07:12;;;;;;;68.70;27.60;;;;;;;;;;5074311;28;20024;-81
2021/03/21 06:09:49;;;;;;;69.42;29.28;;;;;;;;;;5074241;28;20028;-81
2021/03/21 06:12:33;;;;;;;66.37;27.53;;;;;;;;;;5074164;28;20032;-81
2021/03/21 06:15:13;;;;;;;65.37;30.30;;;;;;;;;;5074093;28;20041;-81
2021/03/21 06:17:54;;;;;;;66.90;28.67;;;;;;;;;;5075426;28;20462;-81
2021/03/21 06:20:20;;;;;;;67.67;27.50;;;;;;;;;;5071908;28;20034;-81
2021/03/21 06:22:48;;;;;;;73.17;32.17;;;;;;;;;;5073692;28;20479;-81
2021/03/21 06:25:19;;;;;;;66.73;28.60;;;;;;;;;;5075242;28;20024;-81
2021/03/21 06:28:03;;;;;;;70.03;29.43;;;;;;;;;;5075130;28;20031;-82
2021/03/21 06:30:37;;;;;;;73.40;28.03;;;;;;;;;;5075150;28;20050;-81
2021/03/21 06:33:26;;;;;;;67.40;28.07;;;;;;;;;;5065939;28;20039;-81
2021/03/21 06:35:51;;;;;;;70.50;28.87;;;;;;;;;;5064408;28;20032;-81
2021/03/21 06:38:35;;;;;;;64.90;26.67;;;;;;;;;;5073899;28;20434;-81
2021/03/21 06:41:00;;;;;;;60.57;24.80;;;;;;;;;;5073398;28;20107;-81
2021/03/21 06:43:28;;;;;;;58.88;25.12;;;;;;;;;;5072926;28;20163;-81
2021/03/21 06:46:01;;;;;;;60.03;26.47;;;;;;;;;;5073388;28;20017;-81
2021/03/21 06:48:34;;;;;;;59.23;25.90;;;;;;;;;;5075074;28;20110;-81
2021/03/21 06:51:07;;;;;;;45.10;17.80;;;;;;;;;;5074601;28;20507;-81
2021/03/21 06:53:35;;;;;;;49.17;22.50;;;;;;;;;;5067134;28;20031;-81
2021/03/21 06:56:19;;;;;;;50.03;21.57;;;;;;;;;;5073282;28;20043;-81
2021/03/21 06:59:03;;;;;;;46.47;17.40;;;;;;;;;;5073459;28;20460;-81
2021/03/21 07:01:28;;;;;;;48.33;21.83;;;;;;;;;;5074423;28;20020;-81
2021/03/21 07:03:54;;;;;;;39.70;18.57;;;;;;;;;;5074630;28;20066;-81
2021/03/21 07:06:37;;;;;;;41.93;19.23;;;;;;;;;;5073044;28;20020;-81
2021/03/21 07:09:08;;;;;;;33.43;14.40;;;;;;;;;;5074622;28;20047;-81
2021/03/21 07:11:40;;;;;;;35.73;16.70;;;;;;;;;;5072687;28;20107;-81
2021/03/21 07:14:08;;;;;;;32.60;14.60;;;;;;;;;;5073228;28;20042;-81
2021/03/21 07:16:48;;;;;;;39.30;15.57;;;;;;;;;;5072856;28;20016;-81
2021/03/21 07:19:23;;;;;;;29.50;13.67;;;;;;;;;;5074437;28;20024;-81
2021/03/21 07:22:02;;;;;;;35.67;15.43;;;;;;;;;;5072626;28;20412;-81
2021/03/21 07:24:30;;;;;;;38.27;15.27;;;;;;;;;;5074234;28;20083;-81
2021/03/21 07:26:55;;;;;;;29.60;13.10;;;;;;;;;;5069334;28;20016;-81
2021/03/21 07:29:32;;;;;;;24.77;10.77;;;;;;;;;;5072904;28;20079;-81
2021/03/21 07:32:20;;;;;;;21.70;11.37;;;;;;;;;;5072713;28;20062;-81
2021/03/21 07:35:03;;;;;;;28.47;11.00;;;;;;;;;;5071190;28;20103;-82
2021/03/21 07:37:37;;;;;;;23.10;9.57;;;;;;;;;;5071386;28;20103;-81
2021/03/21 07:40:35;;;;;;;23.93;9.10;;;;;;;;;;5073559;28;20090;-82
2021/03/21 07:43:16;;;;;;;19.47;8.37;;;;;;;;;;5049931;28;20426;-81
2021/03/21 07:46:00;;;;;;;21.60;7.67;;;;;;;;;;5073154;28;20050;-80
2021/03/21 07:48:34;;;;;;;19.47;6.33;;;;;;;;;;5066731;28;20017;-81
2021/03/21 07:51:28;;;;;;;18.97;6.37;;;;;;;;;;5073502;28;20016;-81
2021/03/21 07:54:02;;;;;;;13.70;5.77;;;;;;;;;;5072302;28;20016;-81
2021/03/21 07:56:31;;;;;;;16.63;5.40;;;;;;;;;;5064234;28;20361;-80
2021/03/21 07:58:59;;;;;;;14.67;4.80;;;;;;;;;;5072390;28;20024;-81
2021/03/21 08:01:24;;;;;;;11.80;3.80;;;;;;;;;;5072097;28;20028;-80
2021/03/21 08:03:55;;;;;;;13.73;3.90;;;;;;;;;;5072192;28;20361;-80
2021/03/21 08:06:25;;;;;;;13.53;3.37;;;;;;;;;;5071736;28;20113;-81
2021/03/21 08:08:55;;;;;;;10.77;2.83;;;;;;;;;;5072313;28;20021;-81
2021/03/21 08:11:27;;;;;;;9.30;2.80;;;;;;;;;;5071968;28;20028;-81
2021/03/21 08:13:56;;;;;;;16.65;2.92;;;;;;;;;;5073556;28;20044;-82
2021/03/21 08:16:27;;;;;;;13.53;2.20;;;;;;;;;;5071804;28;20032;-81
2021/03/21 08:18:52;;;;;;;8.00;2.27;;;;;;;;;;5073291;28;20044;-82
2021/03/21 08:21:23;;;;;;;10.33;1.73;;;;;;;;;;5072902;28;20056;-81
2021/03/21 08:23:50;;;;;;;11.07;2.63;;;;;;;;;;5102799;28;20028;-81
2021/03/21 08:26:22;;;;;;;9.50;2.47;;;;;;;;;;5066971;28;20028;-82
2021/03/21 08:28:59;;;;;;;10.38;1.85;;;;;;;;;;5072869;28;20024;-81
2021/03/21 08:31:29;;;;;;;8.00;1.97;;;;;;;;;;5072218;28;20031;-81
2021/03/21 08:34:14;;;;;;;10.83;2.00;;;;;;;;;;5070880;28;20066;-81
2021/03/21 08:36:41;;;;;;;9.87;2.77;;;;;;;;;;5071181;28;20020;-81
2021/03/21 08:39:15;;;;;;;15.60;2.43;;;;;;;;;;5070850;28;20494;-81
2021/03/21 08:41:49;;;;;;;11.40;2.30;;;;;;;;;;5072412;28;20024;-81
2021/03/21 08:44:27;;;;;;;11.77;3.13;;;;;;;;;;5068632;28;20423;-81
2021/03/21 08:46:53;;;;;;;14.83;2.60;;;;;;;;;;5070236;28;20035;-80
2021/03/21 08:49:19;;;;;;;9.70;2.60;;;;;;;;;;5071257;28;20016;-82
2021/03/21 08:51:45;;;;;;;16.83;2.57;;;;;;;;;;5072625;28;20456;-82
2021/03/21 08:54:10;;;;;;;11.77;2.33;;;;;;;;;;5070212;28;20173;-81
2021/03/21 08:56:39;;;;;;;12.77;2.30;;;;;;;;;;5072215;28;20119;-82
2021/03/21 08:59:23;;;;;;;10.43;2.63;;;;;;;;;;5071256;28;20065;-81
2021/03/21 09:01:57;;;;;;;9.67;2.10;;;;;;;;;;5066133;28;20020;-81
2021/03/21 09:04:25;;;;;;;15.40;2.80;;;;;;;;;;5072248;28;20054;-82
2021/03/21 09:06:50;;;;;;;17.73;4.03;;;;;;;;;;5072046;28;20436;-81
2021/03/21 09:09:33;;;;;;;17.33;4.07;;;;;;;;;;5070995;28;20029;-81
2021/03/21 09:12:00;;;;;;;27.63;9.17;;;;;;;;;;5069743;28;20017;-81
2021/03/21 09:14:27;;;;;;;51.67;18.80;;;;;;;;;;5070408;28;20510;-82
2021/03/21 09:17:00;;;;;;;22.77;9.13;;;;;;;;;;5070268;28;20048;-81
2021/03/21 09:19:30;;;;;;;11.80;2.30;;;;;;;;;;5070324;28;20020;-82
2021/03/21 09:21:55;;;;;;;10.87;3.23;;;;;;;;;;5068999;28;20535;-81
2021/03/21 09:24:22;;;;;;;14.50;3.80;;;;;;;;;;5070788;28;20116;-81
2021/03/21 09:26:49;;;;;;;11.57;4.13;;;;;;;;;;5071463;28;20024;-81
2021/03/21 09:29:14;;;;;;;18.23;4.53;;;;;;;;;;5072161;28;20096;-81
2021/03/21 09:31:39;;;;;;;12.50;3.33;;;;;;;;;;5071556;28;20494;-81
2021/03/21 09:34:26;;;;;;;19.83;4.43;;;;;;;;;;5070581;28;20047;-81
2021/03/21 09:36:57;;;;;;;12.93;2.83;;;;;;;;;;5070704;28;20089;-80
2021/03/21 09:39:25;;;;;;;17.77;4.27;;;;;;;;;;5070014;28;20052;-81
2021/03/21 09:41:51;;;;;;;14.10;3.03;;;;;;;;;;5070606;28;20024;-81
2021/03/21 09:44:28;;;;;;;13.13;2.17;;;;;;;;;;5070691;28;20032;-81
2021/03/21 09:47:12;;;;;;;13.18;2.50;;;;;;;;;;5070760;28;20490;-81
2021/03/21 09:50:01;;;;;;;7.43;1.40;;;;;;;;;;5066070;28;20028;-80
2021/03/21 09:52:27;;;;;;;12.50;2.37;;;;;;;;;;5075582;28;20033;-81
2021/03/21 09:55:01;;;;;;;9.15;1.23;;;;;;;;;;5070271;28;20460;-81
2021/03/21 09:57:37;;;;;;;15.93;1.97;;;;;;;;;;5069327;28;20361;-80
2021/03/21 10:00:08;;;;;;;12.77;1.90;;;;;;;;;;5069959;28;20475;-81
2021/03/21 10:02:47;;;;;;;11.50;1.70;;;;;;;;;;5070485;28;20118;-80
2021/03/21 10:05:12;;;;;;;18.00;2.23;;;;;;;;;;5070402;28;20074;-81
2021/03/21 10:08:00;;;;;;;13.90;1.60;;;;;;;;;;5070683;28;20112;-81
2021/03/21 10:10:29;;;;;;;13.25;1.80;;;;;;;;;;5071606;28;20456;-81
2021/03/21 10:12:54;;;;;;;11.38;1.83;;;;;;;;;;5070328;28;20028;-81
2021/03/21 10:15:26;;;;;;;14.23;2.17;;;;;;;;;;5070533;28;20033;-81
2021/03/21 10:18:00;;;;;;;21.40;3.33;;;;;;;;;;5072025;28;20035;-81
2021/03/21 10:20:44;;;;;;;13.30;2.07;;;;;;;;;;5074093;28;20036;-80
2021/03/21 10:23:09;;;;;;;14.17;2.07;;;;;;;;;;5074006;28;20028;-81
2021/03/21 10:25:37;;;;;;;15.93;2.27;;;;;;;;;;5073837;28;20035;-80
2021/03/21 10:28:22;;;;;;;16.33;2.10;;;;;;;;;;5074276;28;20447;-80
2021/03/21 10:31:06;;;;;;;20.10;3.37;;;;;;;;;;5074882;28;20032;-81
2021/03/21 10:33:34;;;;;;;14.37;2.97;;;;;;;;;;5073942;28;20125;-81
2021/03/21 10:35:59;;;;;;;16.10;2.20;;;;;;;;;;5075138;28;20028;-81
2021/03/21 10:39:00;;;;;;;17.00;4.20;;;;;;;;;;5073893;28;20555;-80
2021/03/21 10:41:44;;;;;;;12.17;3.20;;;;;;;;;;5041704;28;20036;-80
2021/03/21 10:44:09;;;;;;;15.90;3.27;;;;;;;;;;5070816;28;20433;-81
2021/03/21 10:46:46;;;;;;;14.70;3.38;;;;;;;;;;5073812;28;20055;-81
2021/03/21 10:49:11;;;;;;;25.73;3.47;;;;;;;;;;5095414;28;20052;-81
2021/03/21 10:51:55;;;;;;;15.77;3.33;;;;;;;;;;5073663;28;20047;-81
2021/03/21 10:54:25;;;;;;;16.20;3.20;;;;;;;;;;5074787;28;20070;-81
2021/03/21 10:57:09;;;;;;;18.63;2.90;;;;;;;;;;5073502;28;20028;-81
2021/03/21 10:59:34;;;;;;;19.42;2.90;;;;;;;;;;5074668;28;20028;-81
2021/03/21 11:02:19;;;;;;;15.40;2.47;;;;;;;;;;5073130;28;20137;-81
2021/03/21 11:04:46;;;;;;;21.90;3.38;;;;;;;;;;5071783;28;20028;-81
2021/03/21 11:07:11;;;;;;;19.63;2.30;;;;;;;;;;5074514;28;20046;-81
2021/03/21 11:09:48;;;;;;;13.00;2.20;;;;;;;;;;5073148;28;20091;-81
2021/03/21 11:12:14;;;;;;;16.08;2.50;;;;;;;;;;5072844;28;20032;-81
2021/03/21 11:14:39;;;;;;;14.23;2.33;;;;;;;;;;5073112;28;20081;-81
2021/03/21 11:17:10;;;;;;;14.77;2.30;;;;;;;;;;5074515;28;20053;-81
2021/03/21 11:19:41;;;;;;;12.60;2.33;;;;;;;;;;5072880;28;20081;-81
2021/03/21 11:22:11;;;;;;;23.25;2.55;;;;;;;;;;5072877;28;20020;-81
2021/03/21 11:24:36;;;;;;;18.05;2.03;;;;;;;;;;5073000;28;20376;-81
2021/03/21 11:27:04;;;;;;;15.93;2.45;;;;;;;;;;5072925;28;20031;-81
2021/03/21 11:29:31;;;;;;;20.67;2.92;;;;;;;;;;5072545;28;20435;-81
2021/03/21 11:32:02;;;;;;;13.13;2.60;;;;;;;;;;5072726;28;20116;-81
2021/03/21 11:34:28;;;;;;;15.43;2.30;;;;;;;;;;5072941;28;20471;-81
2021/03/21 11:37:08;;;;;;;20.15;2.70;;;;;;;;;;5074049;28;20111;-81
2021/03/21 11:39:36;;;;;;;24.90;4.20;;;;;;;;;;5093605;28;20419;-79
2021/03/21 11:42:09;;;;;;;18.48;2.78;;;;;;;;;;5072278;28;20035;-81
2021/03/21 11:44:34;;;;;;;23.02;3.05;;;;;;;;;;5069517;28;20492;-80
2021/03/21 11:47:32;;;;;;;27.50;3.83;;;;;;;;;;5073629;28;20062;-81
2021/03/21 11:49:59;;;;;;;23.35;2.63;;;;;;;;;;5038888;28;20024;-81
2021/03/21 11:52:24;;;;;;;23.33;3.05;;;;;;;;;;5073461;28;20533;-81
2021/03/21 11:54:50;;;;;;;20.88;2.97;;;;;;;;;;5072359;28;20028;-81
2021/03/21 11:57:34;;;;;;;23.48;4.03;;;;;;;;;;5073414;28;20451;-81
2021/03/21 12:00:02;;;;;;;18.30;3.20;;;;;;;;;;5069030;28;20063;-81
2021/03/21 12:02:38;;;;;;;20.05;4.40;;;;;;;;;;5072037;28;20094;-81
2021/03/21 12:05:06;;;;;;;25.02;5.68;;;;;;;;;;5070300;28;20032;-81
2021/03/21 12:07:32;;;;;;;31.10;4.80;;;;;;;;;;5073346;28;20028;-81
2021/03/21 12:09:58;;;;;;;25.02;3.40;;;;;;;;;;5071826;28;20023;-81
2021/03/21 12:12:42;;;;;;;20.85;3.60;;;;;;;;;;5071716;28;20448;-81
2021/03/21 12:15:15;;;;;;;21.15;2.75;;;;;;;;;;5069057;28;20020;-81
2021/03/21 12:17:42;;;;;;;16.23;3.30;;;;;;;;;;5098620;28;20020;-80
2021/03/21 12:20:27;;;;;;;22.75;3.67;;;;;;;;;;5071712;28;20063;-81
2021/03/21 12:22:52;;;;;;;23.52;4.18;;;;;;;;;;5064214;28;20033;-81
2021/03/21 12:25:27;;;;;;;20.70;3.17;;;;;;;;;;5071560;28;20025;-80
2021/03/21 12:28:00;;;;;;;26.40;3.78;;;;;;;;;;5093883;28;20021;-81
2021/03/21 12:30:31;;;;;;;23.63;3.92;;;;;;;;;;5071507;28;20024;-81
2021/03/21 12:33:12;;;;;;;24.10;3.63;;;;;;;;;;5064796;28;20033;-81
2021/03/21 12:35:40;;;;;;;21.40;3.85;;;;;;;;;;5071231;28;20067;-81
2021/03/21 12:38:08;;;;;;;17.08;3.22;;;;;;;;;;5071212;28;20028;-81
2021/03/21 12:40:35;;;;;;;25.40;4.15;;;;;;;;;;5070786;28;20040;-81
2021/03/21 12:43:19;;;;;;;23.65;4.22;;;;;;;;;;5071084;28;20082;-81
2021/03/21 12:46:00;;;;;;;24.75;3.60;;;;;;;;;;5070902;28;20468;-80
2021/03/21 12:48:25;;;;;;;23.67;3.47;;;;;;;;;;5069207;28;20048;-81
2021/03/21 12:50:50;;;;;;;30.25;3.42;;;;;;;;;;5070501;28;20048;-81
2021/03/21 12:53:20;;;;;;;28.65;3.70;;;;;;;;;;5071067;28;20029;-81
2021/03/21 12:55:46;;;;;;;32.22;4.25;;;;;;;;;;5070742;28;20460;-80
2021/03/21 12:58:11;;;;;;;21.13;3.75;;;;;;;;;;5070803;28;20081;-81
2021/03/21 13:00:38;;;;;;;23.00;3.15;;;;;;;;;;5072561;28;20039;-80
2021/03/21 13:03:04;;;;;;;36.53;3.80;;;;;;;;;;5071514;28;20040;-81
2021/03/21 13:05:40;;;;;;;27.08;4.22;;;;;;;;;;5068050;28;20103;-81
2021/03/21 13:08:06;;;;;;;27.30;3.22;;;;;;;;;;5071665;28;20020;-81
2021/03/21 13:10:35;;;;;;;33.63;3.93;;;;;;;;;;5069984;28;20046;-81
2021/03/21 13:13:05;;;;;;;24.15;3.65;;;;;;;;;;5070098;28;20436;-81
2021/03/21 13:15:30;;;;;;;32.30;3.45;;;;;;;;;;5070885;28;20032;-81
2021/03/21 13:17:56;;;;;;;30.17;3.53;;;;;;;;;;5070690;28;20349;-81
2021/03/21 13:20:21;;;;;;;36.53;3.80;;;;;;;;;;5070690;28;20380;-82
2021/03/21 13:22:47;;;;;;;29.53;3.10;;;;;;;;;;5070462;28;21382;-82
2021/03/21 13:25:22;;;;;;;23.58;3.17;;;;;;;;;;5070878;28;20426;-81
2021/03/21 13:27:47;;;;;;;26.05;3.50;;;;;;;;;;5070651;28;20051;-82
2021/03/21 13:30:13;;;;;;;34.67;5.18;;;;;;;;;;5070580;28;20029;-81
2021/03/21 13:32:38;;;;;;;28.50;3.72;;;;;;;;;;5071721;28;20027;-82
2021/03/21 13:35:04;;;;;;;20.15;3.53;;;;;;;;;;5070800;28;20017;-82
2021/03/21 13:37:30;;;;;;;27.75;4.13;;;;;;;;;;5068951;28;20040;-82
2021/03/21 13:39:56;;;;;;;35.63;4.57;;;;;;;;;;5071745;28;20021;-80
2021/03/21 13:42:21;;;;;;;28.00;4.40;;;;;;;;;;5071845;28;20024;-79
2021/03/21 13:44:47;;;;;;;22.92;3.83;;;;;;;;;;5070568;28;20364;-80
2021/03/21 13:47:12;;;;;;;29.38;4.00;;;;;;;;;;5071704;28;20481;-80
2021/03/21 13:49:38;;;;;;;30.25;4.22;;;;;;;;;;5069999;28;20038;-80
2021/03/21 13:52:04;;;;;;;34.55;4.63;;;;;;;;;;5072298;28;20468;-79
2021/03/21 13:54:29;;;;;;;32.80;4.50;;;;;;;;;;5075648;28;20496;-80
2021/03/21 13:56:54;;;;;;;39.33;4.97;;;;;;;;;;5075618;28;20024;-81
2021/03/21 13:59:20;;;;;;;29.17;4.03;;;;;;;;;;5071662;28;20099;-80
2021/03/21 14:01:45;;;;;;;23.45;3.78;;;;;;;;;;5075223;28;20016;-80
2021/03/21 14:04:10;;;;;;;33.57;4.83;;;;;;;;;;5075497;28;20028;-80
2021/03/21 14:06:35;;;;;;;28.58;3.25;;;;;;;;;;5073988;28;20048;-80
2021/03/21 14:09:00;;;;;;;35.13;3.90;;;;;;;;;;5074404;28;20468;-80
2021/03/21 14:11:26;;;;;;;30.48;3.42;;;;;;;;;;5075188;28;20527;-80
2021/03/21 14:13:51;;;;;;;34.83;4.53;;;;;;;;;;5075474;28;20020;-80
2021/03/21 14:16:17;;;;;;;29.42;3.17;;;;;;;;;;5073581;28;20468;-80
2021/03/21 14:18:42;;;;;;;39.50;5.30;;;;;;;;;;5073943;28;20426;-80
2021/03/21 14:21:07;;;;;;;31.02;3.60;;;;;;;;;;5073996;28;20025;-79
2021/03/21 14:23:33;;;;;;;38.22;4.63;;;;;;;;;;5073401;28;20028;-81
2021/03/21 14:25:59;;;;;;;34.42;4.03;;;;;;;;;;5073858;28;20035;-79
2021/03/21 14:28:26;;;;;;;32.70;4.82;;;;;;;;;;5070588;28;20009;-80
2021/03/21 14:30:51;;;;;;;23.70;3.63;;;;;;;;;;5069555;28;20025;-80
2021/03/21 14:33:18;;;;;;;30.45;4.30;;;;;;;;;;5073472;28;20494;-80
2021/03/21 14:35:43;;;;;;;23.40;4.28;;;;;;;;;;5073415;28;20023;-80
2021/03/21 14:38:10;;;;;;;32.95;5.40;;;;;;;;;;5075157;28;20020;-80
2021/03/21 14:40:36;;;;;;;34.42;4.00;;;;;;;;;;5072070;28;20107;-80
2021/03/21 14:43:02;;;;;;;32.72;4.30;;;;;;;;;;5072967;28;20468;-82
2021/03/21 14:45:27;;;;;;;24.20;3.58;;;;;;;;;;5074312;28;20019;-80